FW2600 Weather Reports


Display with metric or nautical units.
time (UTC)temp
F
wind
direction
speed
MPH
gust
MPH
rain 1hr
in
rain 24hr
in
rain mn
in
humidity
%
barometer
mb
20190824155125 83 34 2.0 5.0 0.00 0.00 0.00 53 1023.5
20190824154131 83 44 2.0 4.0 0.00 0.00 0.00 54 1023.5
20190824153137 84 81 3.0 6.0 0.00 0.00 0.00 54 1023.6
20190824152142 84 67 2.0 4.0 0.00 0.00 0.00 53 1023.7
20190824151148 85 57 2.0 5.0 0.00 0.00 0.00 52 1023.6
20190824150132 86 30 2.0 5.0 0.00 0.00 0.00 50 1023.5
20190824145136 87 69 2.0 4.0 0.00 0.00 0.00 51 1023.7
20190824144140 87 135 1.0 4.0 0.00 0.00 0.00 51 1023.8
20190824143145 86 112 2.0 4.0 0.00 0.00 0.00 52 1023.9
20190824142149 86 0.0 0.0 0.00 0.00 0.00 51 1023.8
20190824141154 86 42 1.0 4.0 0.00 0.00 0.00 52 1023.9
20190824140138 86 69 2.0 4.0 0.00 0.00 0.00 52 1024.0
20190824135139 86 84 1.0 2.0 0.00 0.00 0.00 50 1024.0
20190824134146 86 242 3.0 5.0 0.00 0.00 0.00 52 1024.1
20190824133129 86 47 2.0 4.0 0.00 0.00 0.00 53 1024.1
20190824132136 85 177 1.0 2.0 0.00 0.00 0.00 52 1024.3
20190824131137 86 76 1.0 5.0 0.00 0.00 0.00 51 1024.4
20190824130142 87 45 2.0 6.0 0.00 0.00 0.00 51 1024.4
20190824125147 86 135 1.0 5.0 0.00 0.00 0.00 52 1024.5
20190824124129 87 72 2.0 5.0 0.00 0.00 0.00 50 1024.7
20190824123132 88 202 1.0 4.0 0.00 0.00 0.00 50 1024.7
20190824122154 88 175 2.0 2.0 0.00 0.00 0.00 49 1024.8
20190824121136 89 174 2.0 6.0 0.00 0.00 0.00 47 1024.9
20190824120138 90 82 4.0 8.0 0.00 0.00 0.00 48 1024.9
20190824115138 90 102 2.0 5.0 0.00 0.00 0.00 48 1024.9
20190824114137 90 135 2.0 6.0 0.00 0.00 0.00 49 1024.9
20190824113139 89 157 4.0 5.0 0.00 0.00 0.00 50 1025.0
20190824112142 88 157 3.0 5.0 0.00 0.00 0.00 51 1025.2
20190824111148 87 109 3.0 5.0 0.00 0.00 0.00 53 1025.2
20190824110148 85 144 7.0 9.0 0.00 0.00 0.00 54 1025.1
20190824105132 84 157 3.0 5.0 0.00 0.00 0.00 56 1025.1
20190824104137 82 131 3.0 6.0 0.00 0.00 0.00 59 1025.2
20190824103139 82 151 2.0 6.0 0.00 0.00 0.00 60 1025.1
20190824102144 81 157 4.0 8.0 0.00 0.00 0.00 61 1025.1
20190824101148 80 157 4.0 5.0 0.00 0.00 0.00 62 1025.2
20190824100148 80 107 1.0 5.0 0.00 0.00 0.00 64 1025.3
20190824095150 79 68 1.0 4.0 0.00 0.00 0.00 66 1025.3
20190824094130 78 166 3.0 5.0 0.00 0.00 0.00 66 1025.4
20190824093136 78 116 2.0 4.0 0.00 0.00 0.00 67 1025.4
20190824092140 77 169 2.0 4.0 0.00 0.00 0.00 69 1025.4
20190824091145 77 109 1.0 2.0 0.00 0.00 0.00 70 1025.5
20190824090150 76 59 2.0 4.0 0.00 0.00 0.00 71 1025.4
20190824085151 75 72 1.0 2.0 0.00 0.00 0.00 72 1025.5
20190824084131 75 102 2.0 2.0 0.00 0.00 0.00 73 1025.5
20190824083137 74 112 2.0 2.0 0.00 0.00 0.00 74 1025.6
20190824082142 74 60 2.0 2.0 0.00 0.00 0.00 74 1025.5
20190824081145 73 112 1.0 2.0 0.00 0.00 0.00 75 1025.5
20190824080151 73 145 2.0 4.0 0.00 0.00 0.00 76 1025.6
20190824075156 72 126 0.0 2.0 0.00 0.00 0.00 76 1025.4
20190824074138 71 67 0.0 2.0 0.00 0.00 0.00 75 1025.3
20190824073144 71 67 1.0 4.0 0.00 0.00 0.00 76 1025.3
20190824072150 70 88 0.0 2.0 0.00 0.00 0.00 77 1025.3
20190824071133 70 77 1.0 4.0 0.00 0.00 0.00 78 1025.3
20190824070138 69 67 0.0 2.0 0.00 0.00 0.00 78 1025.2
20190824065140 69 50 1.0 4.0 0.00 0.00 0.00 79 1025.2
20190824064146 68 67 0.0 1.0 0.00 0.00 0.00 80 1025.3
20190824063128 67 0.0 0.0 0.00 0.00 0.00 80 1025.2
20190824062132 67 0.0 1.0 0.00 0.00 0.00 81 1025.3
20190824061137 66 0.0 0.0 0.00 0.00 0.00 82 1025.4
20190824060142 66 0.0 1.0 0.00 0.00 0.00 82 1025.4
20190824055146 65 315 0.0 2.0 0.00 0.00 0.00 83 1025.4
20190824054152 64 337 0.0 1.0 0.00 0.00 0.00 82 1025.4
20190824053135 64 0.0 0.0 0.00 0.00 0.00 82 1025.4
20190824052141 64 0.0 0.0 0.00 0.00 0.00 82 1025.3
20190824051146 63 0.0 0.0 0.00 0.00 0.00 82 1025.3
20190824050151 63 0.0 0.0 0.00 0.00 0.00 82 1025.4
20190824045135 63 0.0 0.0 0.00 0.00 0.00 82 1025.4
20190824044139 63 0.0 0.0 0.00 0.00 0.00 82 1025.4
20190824043145 63 0.0 0.0 0.00 0.00 0.00 81 1025.4
20190824042151 63 0.0 0.0 0.00 0.00 0.00 81 1025.4
20190824041135 63 0.0 0.0 0.00 0.00 0.00 81 1025.3
20190824040140 63 0.0 0.0 0.00 0.00 0.00 81 1025.4
20190824035145 63 0.0 0.0 0.00 0.00 0.00 81 1025.5
20190824034129 63 0.0 0.0 0.00 0.00 0.00 81 1025.5
20190824033135 63 0.0 0.0 0.00 0.00 0.00 80 1025.4
20190824032141 63 0.0 0.0 0.00 0.00 0.00 80 1025.4
20190824031148 63 0.0 0.0 0.00 0.00 0.00 80 1025.4
20190824030132 64 0.0 0.0 0.00 0.00 0.00 79 1025.4
20190824025138 64 0.0 0.0 0.00 0.00 0.00 79 1025.4
20190824024144 64 0.0 0.0 0.00 0.00 0.00 80 1025.5
20190824023150 64 0.0 0.0 0.00 0.00 0.00 80 1025.5
20190824022134 64 0.0 0.0 0.00 0.00 0.00 80 1025.5
20190824021139 64 0.0 0.0 0.00 0.00 0.00 80 1025.4
20190824020146 64 0.0 0.0 0.00 0.00 0.00 79 1025.7
20190824015152 65 0.0 0.0 0.00 0.00 0.00 79 1025.7
20190824014134 65 0.0 0.0 0.00 0.00 0.00 79 1025.7
20190824013140 65 0.0 0.0 0.00 0.00 0.00 79 1025.7
20190824012145 65 0.0 0.0 0.00 0.00 0.00 78 1025.7
20190824011150 65 71 0.0 2.0 0.00 0.00 0.00 78 1025.7
20190824010134 66 0.0 0.0 0.00 0.00 0.00 78 1025.7
20190824005140 66 315 0.0 2.0 0.00 0.00 0.00 77 1025.7
20190824004146 66 90 0.0 1.0 0.00 0.00 0.00 77 1025.8
20190824003127 66 0.0 1.0 0.00 0.00 0.00 77 1025.7
20190824002131 66 0 0.0 1.0 0.00 0.00 0.00 77 1025.7
20190824001138 66 315 0.0 1.0 0.00 0.00 0.00 77 1025.8
20190824000144 66 337 0.0 1.0 0.00 0.00 0.00 77 1025.8
20190823235129 66 0.0 0.0 0.00 0.00 0.00 77 1025.9
20190823234135 66 40 1.0 2.0 0.00 0.00 0.00 77 1025.7
20190823233141 66 292 0.0 1.0 0.00 0.00 0.00 76 1025.7
20190823232147 66 337 0.0 1.0 0.00 0.00 0.00 76 1025.7
20190823231153 67 0.0 0.0 0.00 0.00 0.00 76 1025.9
20190823230138 67 315 0.0 2.0 0.00 0.00 0.00 75 1025.9
20190823225144 67 0.0 0.0 0.00 0.00 0.00 76 1025.9
20190823224148 67 0.0 0.0 0.00 0.00 0.00 75 1025.9
20190823223133 67 315 0.0 1.0 0.00 0.00 0.00 75 1026.0
20190823222138 67 0.0 0.0 0.00 0.00 0.00 74 1025.8
20190823221143 67 0.0 0.0 0.00 0.00 0.00 74 1025.8
20190823220151 68 0.0 0.0 0.00 0.00 0.00 74 1025.7
20190823215133 68 315 0.0 1.0 0.00 0.00 0.00 73 1025.9
20190823214136 68 315 1.0 2.0 0.00 0.00 0.00 73 1026.0
20190823213140 68 0.0 0.0 0.00 0.00 0.00 73 1026.1
20190823212143 68 315 0.0 1.0 0.00 0.00 0.00 73 1026.1
20190823211146 69 0.0 0.0 0.00 0.00 0.00 72 1026.1
20190823210127 69 163 0.0 1.0 0.00 0.00 0.00 72 1026.0
20190823205131 69 67 0.0 1.0 0.00 0.00 0.00 71 1026.1
20190823204133 69 87 0.0 2.0 0.00 0.00 0.00 71 1026.2
20190823203138 70 0.0 0.0 0.00 0.00 0.00 71 1026.2
20190823202141 70 129 1.0 4.0 0.00 0.00 0.00 71 1026.2
20190823201142 70 229 0.0 2.0 0.00 0.00 0.00 70 1026.2
20190823200141 70 71 1.0 1.0 0.00 0.00 0.00 70 1026.3
20190823195143 70 187 0.0 2.0 0.00 0.00 0.00 70 1026.3
20190823194147 70 0.0 0.0 0.00 0.00 0.00 70 1026.3
20190823193149 71 88 1.0 4.0 0.00 0.00 0.00 70 1026.3
20190823192148 71 84 1.0 2.0 0.00 0.00 0.00 69 1026.3
20190823191128 71 74 2.0 4.0 0.00 0.00 0.00 70 1026.3
20190823190131 71 90 1.0 2.0 0.00 0.00 0.00 69 1026.2
20190823185153 72 67 0.0 4.0 0.00 0.00 0.00 68 1026.1
20190823184133 72 63 1.0 2.0 0.00 0.00 0.00 67 1026.2
20190823183137 73 77 2.0 4.0 0.00 0.00 0.00 67 1026.1
20190823182141 73 54 1.0 4.0 0.00 0.00 0.00 66 1025.9
20190823181146 73 78 2.0 5.0 0.00 0.00 0.00 66 1025.7
20190823180151 74 76 1.0 4.0 0.00 0.00 0.00 65 1025.7
20190823175156 74 88 2.0 4.0 0.00 0.00 0.00 64 1025.6
20190823174137 75 73 1.0 2.0 0.00 0.00 0.00 63 1025.6
20190823173140 76 71 2.0 4.0 0.00 0.00 0.00 62 1025.5
20190823172142 76 67 1.0 2.0 0.00 0.00 0.00 61 1025.5
20190823171147 77 69 1.0 4.0 0.00 0.00 0.00 59 1025.5
20190823170128 77 67 1.0 1.0 0.00 0.00 0.00 58 1025.4
20190823165154 77 106 1.0 5.0 0.00 0.00 0.00 57 1025.4
20190823164158 78 75 3.0 5.0 0.00 0.00 0.00 56 1025.5
20190823163139 79 78 1.0 2.0 0.00 0.00 0.00 56 1025.5
20190823162143 79 50 1.0 2.0 0.00 0.00 0.00 55 1025.6
20190823161147 79 67 2.0 5.0 0.00 0.00 0.00 55 1025.6
20190823160150 79 42 1.0 4.0 0.00 0.00 0.00 56 1025.7